หน้าหลัก
METAR-TAF:

METAR-TAF

ท่าอากาศยาน :

มาจูโร, หมู่เกาะมาร์แชลล์

ละติจูด: 07-04N, ลองจิจูด: 171-17E, ความสูง: 2 ม.

การสังเกตสภาพอากาศปัจจุบัน

รายงานได้ทำขึ้นเมื่อ 6 ชั่วโมงและ 3 นาทีที่แล้ว ณ เวลา 23:54 UTC
อุณหภูมิ 31°C
ความชื้น 71%
ความกดอากาศ 1011 hPa
ทัศนวิสัย: 24.1 กม.
มีเมฆน้อยที่ความสูง 1500 ฟุต
มีเมฆกระจายเป็นบางส่วนที่ความสูง 5000 ฟุต
มีเมฆเป็นส่วนมากเว้นเป็นระยะที่ความสูง 30000 ฟุต

METAR: PKMJ 292354Z 09010K 15SM FEW015 SCT050 BKN300 31/25 A2984 RMK LAST

เวลา: 17:57 (05:57 UTC)

การพยากรณ์

รายงานได้ทำขึ้นเมื่อ 15 นาทีที่แล้ว ณ เวลา 05:42 UTC
การพยากรณ์มีผลตั้งแต่วันที่ 30 ณ เวลา 06 UTC จนถึงวันที่ 31 ณ เวลา 06 UTC
ลม 8 นอตจากตะวันออก
ทัศนวิสัย: 10 กม.
มีเมฆน้อยที่ความสูง 1600 ฟุต
การโปรยปรายในบริเวณใกล้เคียง,

TAF: PKMJ 300542Z 3006/3106 08008KT P6SM VCSH FEW016

สังเกตการณ์สภาพอากาศและพยากรณ์อากาศของสนามบินมากกว่า 4000 แห่ง (รายงาน METAR และ TAF).

สถานีที่ดูได้จะแสดงไว้ด้วยจุดสีเหลืองและสีแดงบนแผนที่.

เลื่อนเมาส์ไปเหนือจุดเพื่อดูชื่อสถานี.

แล้วคลิกเพื่อดูสังเกตการณ์และการพยากรณ์สภาพอากาศ.

ในการเปลี่ยนแผนที่: คลิกที่ปุ่มสีเขียวที่มีกากบาทสีดำเพื่อซูมเข้า; ที่ปุ่มสีเขียวที่มีขีดเพื่อซูมออก; หรือที่ลูกศรสีเขียวเพื่อไปยังแผนที่ที่อยู่ติดกัน.


METAR-TAF: